Time;durP1;ratioP1;P1;durP2;ratioP2;P2;SDS_P1;SDS_P2;PMS_P1;PMS_P2;Temp;Humidity;BMP_temperature;BMP_pressure;BME280_temperature;BME280_humidity;BME280_pressure;Samples;Min_cycle;Max_cycle;Signal;HPM_P1;HPM_P2
2022/03/29 00:00:48;;;;;;;;;15.00;12.00;;;;;12.35;43.73;99358.72;6282015;20;3511766;-52
2022/03/29 00:03:16;;;;;;;;;20.00;20.00;;;;;12.06;44.53;99356.34;6314403;20;2833579;-50
2022/03/29 00:05:44;;;;;;;;;18.50;18.50;;;;;12.20;44.27;99352.63;6281360;20;2818012;-52
2022/03/29 00:08:12;;;;;;;;;19.00;16.00;;;;;12.25;44.22;99344.22;6282214;20;2498173;-48
2022/03/29 00:10:40;;;;;;;;;20.00;18.50;;;;;11.96;45.01;99349.91;6288592;20;2829414;-53
2022/03/29 00:13:08;;;;;;;;;19.00;17.00;;;;;12.12;44.46;99343.41;6282070;20;2500443;-53
2022/03/29 00:15:36;;;;;;;;;18.00;18.00;;;;;12.12;44.73;99338.03;6284101;20;2494138;-50
2022/03/29 00:18:04;;;;;;;;;18.50;18.00;;;;;12.17;44.44;99339.41;6282842;20;2500252;-51
2022/03/29 00:20:32;;;;;;;;;18.50;17.00;;;;;11.68;45.64;99336.69;6281273;20;2494025;-52
2022/03/29 00:23:00;;;;;;;;;17.33;14.00;;;;;12.06;45.26;99333.97;6281964;20;3536720;-49
2022/03/29 00:25:29;;;;;;;;;17.33;14.33;;;;;11.94;45.34;99334.84;6310314;20;3546105;-52
2022/03/29 00:27:58;;;;;;;;;26.50;18.00;;;;;11.96;45.39;99328.41;6312468;20;2850331;-51
2022/03/29 00:30:26;;;;;;;;;21.00;19.00;;;;;11.95;45.75;99321.28;6282923;20;2833636;-52
2022/03/29 00:32:55;;;;;;;;;22.00;17.00;;;;;11.87;45.80;99326.34;6282020;20;2500391;-50
2022/03/29 00:35:24;;;;;;;;;23.00;20.50;;;;;11.91;45.75;99335.09;6282099;20;2498166;-53
2022/03/29 00:37:53;;;;;;;;;22.00;16.50;;;;;12.03;45.66;99324.28;6281754;20;2500278;-52
2022/03/29 00:40:21;;;;;;;;;19.00;15.00;;;;;11.65;46.74;99321.66;6282625;20;2804462;-51
2022/03/29 00:42:50;;;;;;;;;23.00;20.00;;;;;11.33;47.75;99313.19;6282453;20;2496079;-48
2022/03/29 00:45:18;;;;;;;;;20.50;20.00;;;;;11.70;46.89;99316.78;6282823;20;2841950;-50
2022/03/29 00:47:45;;;;;;;;;21.00;21.00;;;;;11.93;46.88;99312.47;6282246;20;2830520;-50
2022/03/29 00:50:14;;;;;;;;;18.00;18.00;;;;;11.80;47.18;99303.56;6282683;20;2826298;-52
2022/03/29 00:52:42;;;;;;;;;20.00;18.00;;;;;11.66;47.86;99304.53;6281258;20;2498202;-49
2022/03/29 00:55:13;;;;;;;;;26.00;22.00;;;;;11.58;47.71;99307.78;6281000;20;2835690;-53
2022/03/29 00:57:45;;;;;;;;;21.00;20.00;;;;;11.70;47.75;99300.66;6280268;20;2500250;-48
2022/03/29 01:00:16;;;;;;;;;26.00;22.00;;;;;11.58;48.26;99297.00;6276486;20;2500349;-49
2022/03/29 01:02:44;;;;;;;;;23.00;23.00;;;;;11.10;49.71;99279.88;6278229;20;2500244;-49
2022/03/29 01:05:13;;;;;;;;;24.50;23.00;;;;;11.28;49.15;99283.09;6280968;20;2500350;-47
2022/03/29 01:07:41;;;;;;;;;21.50;20.00;;;;;11.41;48.92;99283.94;6279695;20;2500354;-46
2022/03/29 01:10:10;;;;;;;;;28.00;22.50;;;;;11.50;48.51;99279.72;6277085;20;2851436;-50
2022/03/29 01:12:38;;;;;;;;;24.00;19.00;;;;;11.05;49.70;99272.13;6283633;20;2838811;-48
2022/03/29 01:15:10;;;;;;;;;27.50;21.00;;;;;10.91;50.59;99264.19;6283592;20;2852381;-49
2022/03/29 01:17:38;;;;;;;;;20.00;20.00;;;;;11.15;49.71;99267.84;6281288;20;2837875;-47
2022/03/29 01:20:13;;;;;;;;;24.50;20.00;;;;;10.79;50.84;99251.59;6278617;20;2857565;-51
2022/03/29 01:22:46;;;;;;;;;20.00;19.00;;;;;10.96;50.78;99256.69;6280741;20;2828422;-47
2022/03/29 01:25:27;;;;;;;;;25.50;23.50;;;;;10.89;51.21;99245.50;6280683;20;2849196;-50
2022/03/29 01:27:59;;;;;;;;;36.33;33.33;;;;;11.10;50.71;99244.94;6276924;20;3620015;-51
2022/03/29 01:30:27;;;;;;;;;28.50;25.00;;;;;11.16;51.03;99242.69;6305240;20;2500235;-50
2022/03/29 01:33:01;;;;;;;;;22.00;22.00;;;;;11.38;50.53;99241.16;6282463;20;2836842;-49
2022/03/29 01:35:30;;;;;;;;;24.50;22.00;;;;;11.20;51.35;99230.75;6278000;20;2844099;-52
2022/03/29 01:37:58;;;;;;;;;26.50;23.00;;;;;10.88;52.44;99222.28;6275973;20;2500281;-52
2022/03/29 01:40:28;;;;;;;;;24.00;20.00;;;;;11.24;51.67;99217.09;6276949;20;2498168;-53
2022/03/29 01:43:02;;;;;;;;;29.00;22.00;;;;;11.11;52.00;99212.63;6280244;20;2498161;-48
2022/03/29 01:45:32;;;;;;;;;24.67;19.00;;;;;10.87;52.88;99214.34;6279033;20;3571075;-50
2022/03/29 01:48:01;;;;;;;;;24.00;23.00;;;;;10.94;52.48;99207.56;6280040;20;2839959;-51
2022/03/29 01:50:30;;;;;;;;;26.50;24.50;;;;;10.90;52.73;99206.06;6279020;20;2848286;-52
2022/03/29 01:52:58;;;;;;;;;23.00;21.50;;;;;11.10;52.07;99205.50;6276630;20;2500314;-53
2022/03/29 01:55:26;;;;;;;;;19.00;19.00;;;;;10.98;52.43;99191.13;6277866;20;2498159;-49
2022/03/29 01:57:54;;;;;;;;;23.50;22.50;;;;;10.67;53.83;99189.75;6282610;20;2833668;-49
2022/03/29 02:00:38;;;;;;;;;25.00;24.00;;;;;10.67;53.79;99187.06;6280347;20;2843998;-52
2022/03/29 02:03:09;;;;;;;;;23.50;19.00;;;;;10.61;54.06;99186.63;6282115;20;2834627;-54
2022/03/29 02:05:38;;;;;;;;;33.00;24.00;;;;;10.68;54.35;99188.78;6279370;20;2861829;-51
2022/03/29 02:08:07;;;;;;;;;23.50;22.00;;;;;10.61;54.16;99187.50;6276084;20;2829437;-51
2022/03/29 02:10:36;;;;;;;;;31.00;20.00;;;;;10.61;54.11;99192.88;6275415;20;2498300;-50
2022/03/29 02:13:05;;;;;;;;;19.50;19.50;;;;;10.56;54.05;99197.69;6278797;20;2833589;-48
2022/03/29 02:15:36;;;;;;;;;32.00;24.00;;;;;10.48;53.97;99195.53;6277528;20;2867958;-48
2022/03/29 02:18:06;;;;;;;;;27.50;21.50;;;;;10.47;53.83;99191.13;6306826;20;2836819;-50
2022/03/29 02:20:36;;;;;;;;;24.50;21.00;;;;;10.21;53.91;99190.19;6276874;20;2833595;-50
2022/03/29 02:23:07;;;;;;;;;28.50;23.50;;;;;10.39;53.15;99187.25;6281140;20;2847152;-48
2022/03/29 02:25:36;;;;;;;;;27.00;23.00;;;;;10.14;53.86;99183.53;6281274;20;2836791;-53
2022/03/29 02:28:05;;;;;;;;;26.00;20.50;;;;;10.24;53.16;99178.38;6279528;20;2841998;-48
2022/03/29 02:30:35;;;;;;;;;25.00;23.00;;;;;10.09;53.46;99169.59;6280282;20;2846209;-53
2022/03/29 02:33:05;;;;;;;;;33.00;24.00;;;;;10.22;52.77;99165.09;6279006;20;2500244;-49
2022/03/29 02:35:35;;;;;;;;;31.67;23.00;;;;;10.07;53.27;99160.78;6279257;20;3581488;-49
2022/03/29 02:38:06;;;;;;;;;25.00;23.00;;;;;9.92;54.03;99156.44;6280398;20;2732549;-47
2022/03/29 02:40:35;;;;;;;;;34.00;27.50;;;;;10.06;54.35;99159.06;6307597;20;2858582;-52
2022/03/29 02:43:03;;;;;;;;;22.00;21.00;;;;;10.00;55.15;99160.31;6278290;20;2500245;-48
2022/03/29 02:45:31;;;;;;;;;29.50;28.50;;;;;10.13;55.56;99164.84;6278674;20;2831524;-51
2022/03/29 02:48:00;;;;;;;;;25.50;25.00;;;;;10.33;54.90;99170.63;6279850;20;2852369;-47
2022/03/29 02:50:29;;;;;;;;;28.00;26.00;;;;;10.22;55.14;99159.75;6283495;20;2850296;-49
2022/03/29 02:53:01;;;;;;;;;29.50;25.00;;;;;10.38;54.56;99154.19;6283558;20;2844020;-46
2022/03/29 02:55:35;;;;;;;;;19.50;19.00;;;;;10.35;54.88;99150.84;6285076;20;2823196;-54
2022/03/29 02:58:04;;;;;;;;;22.67;18.67;;;;;10.16;55.25;99154.78;6284765;20;3566899;-48
2022/03/29 03:00:32;;;;;;;;;24.50;23.00;;;;;10.25;55.44;99146.09;6282302;20;2500256;-50
2022/03/29 03:03:03;;;;;;;;;22.50;21.50;;;;;10.17;55.73;99153.81;6285291;20;2842080;-51
2022/03/29 03:05:32;;;;;;;;;23.00;20.50;;;;;10.29;55.52;99144.97;6285535;20;2844112;-49
2022/03/29 03:08:02;;;;;;;;;22.50;20.00;;;;;10.16;56.34;99149.41;6285456;20;2827363;-51
2022/03/29 03:10:31;;;;;;;;;29.00;24.50;;;;;10.25;56.07;99137.19;6280710;20;2846132;-48
2022/03/29 03:13:00;;;;;;;;;31.50;24.00;;;;;10.49;55.21;99143.56;6283960;20;2840006;-48
2022/03/29 03:15:29;;;;;;;;;29.00;22.00;;;;;10.66;54.72;99141.53;6281795;20;2500279;-48
2022/03/29 03:17:58;;;;;;;;;27.00;23.00;;;;;10.48;55.71;99143.69;6282777;20;2500261;-54
2022/03/29 03:20:26;;;;;;;;;30.50;24.00;;;;;10.28;55.74;99135.19;6284489;20;2850237;-54
2022/03/29 03:22:55;;;;;;;;;31.00;24.50;;;;;9.71;56.54;99130.09;6285804;20;2850282;-53
2022/03/29 03:25:26;;;;;;;;;31.00;24.00;;;;;9.48;57.51;99117.38;6282667;20;2849243;-52
2022/03/29 03:27:54;;;;;;;;;25.00;22.50;;;;;9.54;57.24;99112.47;6284789;20;2845070;-48
2022/03/29 03:30:22;;;;;;;;;34.50;26.50;;;;;9.24;57.78;99112.66;6280669;20;2500244;-51
2022/03/29 03:32:54;;;;;;;;;30.00;26.50;;;;;9.43;59.04;99112.34;6285494;20;2847230;-47
2022/03/29 03:35:22;;;;;;;;;25.00;23.50;;;;;9.79;58.69;99114.34;6282219;20;2833724;-50
2022/03/29 03:37:50;;;;;;;;;29.00;20.50;;;;;10.10;57.89;99114.97;6283084;20;2500888;-47
2022/03/29 03:40:19;;;;;;;;;28.00;26.00;;;;;10.13;57.69;99117.44;6281870;20;2853412;-48
2022/03/29 03:42:47;;;;;;;;;23.00;21.50;;;;;10.23;57.34;99123.88;6283222;20;2843992;-50
2022/03/29 03:45:16;;;;;;;;;31.50;25.50;;;;;10.48;56.68;99116.84;6282135;20;2855557;-50
2022/03/29 03:47:46;;;;;;;;;28.00;23.50;;;;;10.15;56.55;99120.88;6282730;20;2843116;-51
2022/03/29 03:50:15;;;;;;;;;28.33;21.33;;;;;9.59;57.27;99110.34;6282411;20;3584616;-50
2022/03/29 03:52:43;;;;;;;;;29.00;24.00;;;;;9.22;58.31;99103.91;6279945;20;2500254;-51
2022/03/29 03:55:11;;;;;;;;;26.00;22.50;;;;;9.16;59.25;99104.28;6281712;20;2500307;-53
2022/03/29 03:57:38;;;;;;;;;29.50;27.50;;;;;9.01;59.15;99100.78;6280667;20;2500350;-49
2022/03/29 04:00:09;;;;;;;;;29.50;25.50;;;;;9.30;59.10;99100.72;6281165;20;2855633;-53
2022/03/29 04:02:42;;;;;;;;;30.00;25.00;;;;;9.06;59.48;99098.69;6277378;20;2848361;-51
2022/03/29 04:05:12;;;;;;;;;36.50;29.50;;;;;9.12;59.11;99095.59;6282808;20;2854559;-54
2022/03/29 04:07:42;;;;;;;;;35.67;30.33;;;;;8.88;60.37;99100.72;6284004;20;2848318;-53
2022/03/29 04:10:11;;;;;;;;;44.00;33.33;;;;;9.05;59.98;99107.66;6313860;20;3634704;-51
2022/03/29 04:12:40;;;;;;;;;39.00;31.00;;;;;9.22;59.65;99095.88;6312389;20;2872152;-47
2022/03/29 04:15:10;;;;;;;;;40.67;31.00;;;;;8.93;60.12;99098.63;6282066;20;2873344;-48
2022/03/29 04:17:40;;;;;;;;;36.00;32.00;;;;;9.05;59.33;99101.44;6310319;20;2867091;-46
2022/03/29 04:20:10;;;;;;;;;35.00;29.67;;;;;8.78;60.39;99094.22;6315509;20;3607650;-48
2022/03/29 04:22:39;;;;;;;;;29.00;26.50;;;;;8.68;61.06;99093.94;6282191;20;2843995;-48
2022/03/29 04:25:08;;;;;;;;;23.00;21.50;;;;;8.61;61.22;99100.66;6282620;20;2830461;-49
2022/03/29 04:27:37;;;;;;;;;35.00;29.00;;;;;8.78;60.48;99107.63;6283980;20;2857539;-47
2022/03/29 04:30:09;;;;;;;;;35.00;29.00;;;;;8.90;59.92;99098.81;6281601;20;3604412;-51
2022/03/29 04:32:38;;;;;;;;;32.00;29.50;;;;;8.87;60.29;99096.31;6312515;20;2840963;-49
2022/03/29 04:35:08;;;;;;;;;35.00;32.00;;;;;9.01;60.09;99082.91;6282720;20;2861833;-50
2022/03/29 04:37:37;;;;;;;;;28.33;25.00;;;;;9.04;60.93;99083.69;6279908;20;2850270;-50
2022/03/29 04:40:09;;;;;;;;;36.33;29.33;;;;;9.22;59.93;99075.28;6312507;20;2863916;-51
2022/03/29 04:42:50;;;;;;;;;39.67;33.00;;;;;9.26;60.40;99083.13;6312164;20;2866012;-50
2022/03/29 04:45:20;;;;;;;;;31.00;27.00;;;;;9.35;59.72;99093.25;6312722;20;2843978;-48
2022/03/29 04:47:49;;;;;;;;;28.00;24.00;;;;;9.35;59.36;99093.25;6284212;20;2847131;-53
2022/03/29 04:50:18;;;;;;;;;36.00;29.33;;;;;9.35;59.73;99088.75;6281245;20;2862753;-53
2022/03/29 04:52:48;;;;;;;;;32.33;28.00;;;;;9.07;60.84;99089.69;6318231;20;2861953;-49
2022/03/29 04:55:19;;;;;;;;;41.33;33.33;;;;;9.57;59.58;99082.78;6310412;20;3616905;-52
2022/03/29 04:57:49;;;;;;;;;35.00;33.33;;;;;9.51;59.55;99085.91;6316489;20;3598150;-53
2022/03/29 05:00:21;;;;;;;;;39.67;32.33;;;;;10.07;56.75;99096.41;6279679;20;3617978;-49
2022/03/29 05:02:51;;;;;;;;;42.67;35.00;;;;;9.96;57.83;99098.97;6311071;20;2863891;-53
2022/03/29 05:05:21;;;;;;;;;38.33;34.67;;;;;9.85;59.08;99092.53;6313427;20;3605515;-47
2022/03/29 05:07:50;;;;;;;;;43.00;33.67;;;;;10.10;57.64;99086.31;6312647;20;3622222;-45
2022/03/29 05:10:20;;;;;;;;;44.33;31.67;;;;;10.24;57.78;99090.75;6311736;20;3631471;-49
2022/03/29 05:12:51;;;;;;;;;38.00;30.50;;;;;10.24;57.11;99088.06;6312257;20;2850297;-47
2022/03/29 05:15:21;;;;;;;;;47.33;38.00;;;;;10.05;58.06;99087.59;6282689;20;3611711;-47
2022/03/29 05:17:51;;;;;;;;;34.33;32.67;;;;;10.46;56.50;99091.94;6314664;20;3604525;-45
2022/03/29 05:20:20;;;;;;;;;34.67;31.00;;;;;10.05;57.92;99087.59;6276253;20;2866976;-47
2022/03/29 05:22:52;;;;;;;;;38.00;31.00;;;;;10.26;57.01;99099.50;6315346;20;3598123;-46
2022/03/29 05:25:25;;;;;;;;;34.00;29.00;;;;;10.43;56.77;99093.03;6280451;20;2864911;-47
2022/03/29 05:27:57;;;;;;;;;36.00;32.67;;;;;10.53;55.87;99094.09;6316802;20;3612860;-46
2022/03/29 05:30:27;;;;;;;;;36.67;33.00;;;;;10.36;56.88;99096.25;6278233;20;2858641;-50
2022/03/29 05:32:57;;;;;;;;;34.67;27.00;;;;;10.21;57.13;99087.41;6313106;20;3624179;-49
2022/03/29 05:35:32;;;;;;;;;39.00;32.33;;;;;10.11;57.63;99092.56;6314459;20;3617051;-46
2022/03/29 05:38:04;;;;;;;;;44.33;32.33;;;;;10.31;56.92;99092.03;6283319;20;3648176;-46
2022/03/29 05:40:34;;;;;;;;;34.00;30.00;;;;;10.16;57.43;99098.44;6309883;20;2866072;-47
2022/03/29 05:43:02;;;;;;;;;41.67;35.00;;;;;10.05;58.45;99095.66;6314168;20;3615912;-47
2022/03/29 05:45:32;;;;;;;;;35.00;31.33;;;;;10.50;56.96;99088.06;6282541;20;2860722;-46
2022/03/29 05:50:49;;;;;;;;;35.00;28.00;;;;;10.58;56.52;99091.06;6282338;20;2865057;-47
2022/03/29 05:53:19;;;;;;;;;30.00;29.00;;;;;10.52;56.92;99099.56;6311928;20;2862191;-46
2022/03/29 05:55:48;;;;;;;;;43.67;32.33;;;;;10.38;56.65;99097.00;6315699;20;3621159;-48
2022/03/29 05:58:18;;;;;;;;;34.00;29.67;;;;;10.67;56.36;99090.41;6278346;20;2860946;-50
2022/03/29 06:00:47;;;;;;;;;34.33;34.33;;;;;10.64;55.71;99085.28;6315253;20;3598169;-51
2022/03/29 06:03:17;;;;;;;;;38.67;30.67;;;;;11.16;54.08;99096.72;6283148;20;3623153;-47
2022/03/29 06:05:47;;;;;;;;;33.33;29.67;;;;;11.19;53.52;99081.25;6310390;20;2850313;-51
2022/03/29 06:08:15;;;;;;;;;36.67;31.33;;;;;11.53;53.58;99086.81;6315976;20;3607558;-49
2022/03/29 06:10:43;;;;;;;;;24.00;21.50;;;;;11.75;52.80;99091.41;6278144;20;2500300;-47
2022/03/29 06:13:14;;;;;;;;;34.33;31.00;;;;;11.67;53.04;99090.28;6278997;20;2865480;-49
2022/03/29 06:15:42;;;;;;;;;37.33;29.67;;;;;11.62;52.87;99088.78;6314532;20;3613838;-48
2022/03/29 06:18:11;;;;;;;;;35.67;30.00;;;;;12.11;52.35;99084.19;6281134;20;3606631;-47
2022/03/29 06:20:44;;;;;;;;;41.00;31.33;;;;;12.61;50.93;99086.56;6282717;20;3617954;-52
2022/03/29 06:23:13;;;;;;;;;35.50;32.50;;;;;13.57;48.25;99085.97;6279476;20;2838826;-48
2022/03/29 06:25:43;;;;;;;;;37.00;32.33;;;;;15.13;45.30;99099.41;6285381;20;3598182;-47
2022/03/29 06:28:14;;;;;;;;;33.33;31.67;;;;;15.63;43.47;99089.56;6322051;20;3598285;-49
2022/03/29 06:30:43;;;;;;;;;36.00;30.67;;;;;16.29;42.34;99099.66;6287926;20;3581653;-50
2022/03/29 06:33:12;;;;;;;;;37.00;33.00;;;;;16.83;40.68;99090.84;6284689;20;3598230;-46
2022/03/29 06:35:41;;;;;;;;;33.33;31.00;;;;;16.60;41.28;99092.19;6289347;20;3590354;-48
2022/03/29 06:38:10;;;;;;;;;41.67;35.33;;;;;15.46;44.14;99080.28;6287451;20;3609792;-50
2022/03/29 06:40:39;;;;;;;;;35.33;33.00;;;;;15.18;44.76;99084.66;6287709;20;3597097;-48
2022/03/29 06:43:08;;;;;;;;;35.67;32.00;;;;;14.70;46.41;99078.94;6286075;20;3589920;-48
2022/03/29 06:45:37;;;;;;;;;36.67;33.00;;;;;14.88;46.14;99083.72;6318748;20;3598138;-50
2022/03/29 06:48:07;;;;;;;;;35.00;33.33;;;;;14.86;45.92;99085.69;6285966;20;3602304;-48
2022/03/29 06:50:37;;;;;;;;;37.33;33.00;;;;;15.26;45.38;99090.22;6285357;20;3623527;-48
2022/03/29 06:53:06;;;;;;;;;30.33;29.67;;;;;15.20;45.44;99082.66;6319041;20;3603402;-48
2022/03/29 06:55:35;;;;;;;;;35.00;32.33;;;;;15.38;45.17;99078.28;6290120;20;3595152;-47
2022/03/29 06:58:05;;;;;;;;;38.00;34.00;;;;;15.94;43.93;99083.03;6284506;20;2857716;-48
2022/03/29 07:00:35;;;;;;;;;34.00;31.00;;;;;15.98;43.38;99078.16;6318693;20;3606504;-47
2022/03/29 07:03:04;;;;;;;;;39.33;31.00;;;;;15.85;44.05;99072.19;6288676;20;3598189;-47
2022/03/29 07:05:36;;;;;;;;;37.50;34.50;;;;;15.94;43.23;99079.47;6286502;20;2846130;-50
2022/03/29 07:08:12;;;;;;;;;39.33;33.67;;;;;15.90;43.39;99070.75;6291532;20;3614328;-48
2022/03/29 07:13:28;;;;;;;;;34.67;30.67;;;;;16.01;43.26;99078.75;6289164;20;3594999;-50
2022/03/29 07:15:57;;;;;;;;;42.67;32.33;;;;;16.67;42.16;99074.34;6285297;20;3633567;-48
2022/03/29 07:18:26;;;;;;;;;33.33;30.67;;;;;16.96;40.96;99076.09;6318566;20;3584718;-50
2022/03/29 07:20:55;;;;;;;;;44.00;35.00;;;;;17.07;40.76;99073.19;6281341;20;2848223;-49
2022/03/29 07:23:26;;;;;;;;;33.33;31.00;;;;;17.46;39.75;99081.94;6287119;20;2854555;-49
2022/03/29 07:25:56;;;;;;;;;40.33;33.67;;;;;17.37;40.21;99071.13;6320416;20;3599754;-47
2022/03/29 07:28:26;;;;;;;;;47.00;39.00;;;;;17.16;40.76;99074.13;6284199;20;2859775;-47
2022/03/29 07:30:54;;;;;;;;;39.67;34.33;;;;;16.96;40.12;99076.09;6319571;20;3579430;-47
2022/03/29 07:33:24;;;;;;;;;36.33;32.33;;;;;17.17;39.89;99076.69;6285755;20;3605259;-51
2022/03/29 07:35:54;;;;;;;;;34.67;30.67;;;;;16.68;40.63;99067.91;6285064;20;2858750;-53
2022/03/29 07:38:23;;;;;;;;;33.33;30.33;;;;;17.35;39.67;99068.56;6317796;20;3589848;-50
2022/03/29 07:40:52;;;;;;;;;39.00;33.67;;;;;17.72;39.28;99076.59;6286834;20;3610655;-52
2022/03/29 07:43:20;;;;;;;;;39.00;33.00;;;;;17.65;38.84;99067.38;6285075;20;3613807;-47
2022/03/29 07:45:51;;;;;;;;;39.33;32.67;;;;;18.18;38.42;99071.91;6285372;20;3611717;-47
2022/03/29 07:48:20;;;;;;;;;40.33;34.00;;;;;17.45;39.78;99063.06;6317367;20;3595019;-51
2022/03/29 07:51:11;;;;;;;;;40.00;32.67;;;;;17.75;38.25;99065.44;6286339;20;3604442;-48
2022/03/29 07:53:41;;;;;;;;;37.67;32.67;;;;;17.96;38.22;99061.56;6288294;20;3601290;-50
2022/03/29 07:56:10;;;;;;;;;41.00;32.00;;;;;18.51;37.32;99063.13;6283702;20;3622521;-47
2022/03/29 07:58:39;;;;;;;;;38.00;32.33;;;;;18.64;36.85;99055.38;6317154;20;3600245;-48
2022/03/29 08:01:08;;;;;;;;;38.00;33.00;;;;;18.62;36.47;99057.44;6285504;20;3620032;-47
2022/03/29 08:03:37;;;;;;;;;43.00;33.33;;;;;18.25;37.53;99061.28;6288040;20;3604402;-46
2022/03/29 08:06:07;;;;;;;;;43.75;35.00;;;;;18.94;36.15;99055.94;6288891;20;3624313;-47
2022/03/29 08:08:36;;;;;;;;;42.25;34.25;;;;;19.81;35.48;99054.63;6317954;20;3621116;-47
2022/03/29 08:11:05;;;;;;;;;42.67;36.00;;;;;19.68;35.14;99049.69;6315697;20;3596160;-47
2022/03/29 08:13:35;;;;;;;;;39.33;32.00;;;;;19.47;34.78;99055.56;6285575;20;3614847;-51
2022/03/29 08:16:05;;;;;;;;;38.00;32.67;;;;;19.25;35.55;99056.22;6317301;20;3608594;-47
2022/03/29 08:18:36;;;;;;;;;37.67;33.33;;;;;19.40;34.97;99046.38;6280308;20;3609651;-49
2022/03/29 08:21:48;;;;;;;;;35.33;32.00;;;;;19.48;34.94;99051.84;6319228;20;3606533;-48
2022/03/29 08:23:54;;;;;;;;;36.67;31.33;;;;;19.93;34.03;99047.84;6282916;20;3599207;-50
2022/03/29 08:26:23;;;;;;;;;36.67;34.00;;;;;20.27;34.34;99052.22;6318269;20;3593980;-47
2022/03/29 08:28:52;;;;;;;;;47.00;33.67;;;;;20.10;33.95;99047.84;6284460;20;3628360;-50
2022/03/29 08:31:21;;;;;;;;;37.33;32.00;;;;;19.89;34.40;99051.91;6316563;20;3599179;-49
2022/03/29 08:33:50;;;;;;;;;45.67;36.00;;;;;20.41;33.47;99044.41;6284800;20;3599238;-47
2022/03/29 08:36:19;;;;;;;;;38.00;31.33;;;;;20.21;33.41;99052.94;6285611;20;3607529;-48
2022/03/29 08:38:47;;;;;;;;;43.50;32.00;;;;;20.23;33.42;99058.22;6312250;20;1916008;-46
2022/03/29 08:41:16;;;;;;;;;42.00;35.67;;;;;20.38;33.49;99051.91;6284109;20;3583654;-49
2022/03/29 08:43:48;;;;;;;;;41.00;34.67;;;;;19.99;33.73;99050.91;6280632;20;3600332;-49
2022/03/29 08:46:16;;;;;;;;;41.33;27.67;;;;;20.03;33.29;99038.63;6310418;20;1916066;-48
2022/03/29 08:48:50;;;;;;;;;42.67;36.33;;;;;20.47;32.80;99035.50;6317781;20;3591929;-49
2022/03/29 08:51:19;;;;;;;;;35.00;33.00;;;;;20.01;32.57;99032.50;6285279;20;3580444;-48
2022/03/29 08:53:59;;;;;;;;;41.00;34.33;;;;;20.08;33.40;99033.53;6284951;20;3588775;-48
2022/03/29 08:56:28;;;;;;;;;41.33;35.00;;;;;20.43;32.39;99031.41;6285622;20;3607635;-50
2022/03/29 08:58:57;;;;;;;;;44.00;34.33;;;;;20.58;31.59;99036.00;6286308;20;3621251;-47
2022/03/29 09:01:27;;;;;;;;;42.00;34.50;;;;;20.65;31.62;99027.16;6285001;20;3611742;-48
2022/03/29 09:04:13;;;;;;;;;44.00;35.00;;;;;21.37;31.60;99026.97;6314872;20;3606539;-51
2022/03/29 09:07:01;;;;;;;;;45.33;36.00;;;;;21.27;31.68;99019.88;6286226;20;3619016;-50
2022/03/29 09:09:38;;;;;;;;;41.33;34.33;;;;;21.04;31.60;99021.72;6283644;20;3597188;-49
2022/03/29 09:12:18;;;;;;;;;40.67;34.00;;;;;20.70;30.87;99017.41;6285241;20;3596150;-51
2022/03/29 09:15:00;;;;;;;;;34.00;31.00;;;;;21.10;31.04;99017.41;6285923;20;3590989;-47
2022/03/29 09:17:46;;;;;;;;;43.50;33.25;;;;;21.33;30.68;99010.13;6285085;20;3631535;-48
2022/03/29 09:20:21;;;;;;;;;47.50;35.50;;;;;20.52;31.58;99008.56;6315606;20;4355832;-48
2022/03/29 09:22:55;;;;;;;;;43.00;33.33;;;;;21.20;31.52;99013.44;6317289;20;3614809;-50
2022/03/29 09:25:38;;;;;;;;;39.67;32.67;;;;;21.42;31.54;99002.75;6284026;20;3598159;-51
2022/03/29 09:28:11;;;;;;;;;43.00;33.00;;;;;21.98;30.69;99005.22;6284671;20;3615919;-50
2022/03/29 09:30:51;;;;;;;;;39.33;33.00;;;;;21.87;30.38;99014.69;6283715;20;3596214;-53
2022/03/29 09:33:31;;;;;;;;;39.00;33.50;;;;;20.97;31.03;98996.16;6285500;20;3609615;-48
2022/03/29 09:36:07;;;;;;;;;42.33;34.00;;;;;21.25;30.57;99000.09;6318894;20;3580425;-49
2022/03/29 09:38:44;;;;;;;;;44.67;36.33;;;;;21.05;31.10;98993.38;6281573;20;3592960;-47
2022/03/29 09:41:27;;;;;;;;;39.00;31.25;;;;;21.47;30.55;99000.31;6317506;20;3614803;-49
2022/03/29 09:44:12;;;;;;;;;39.00;32.75;;;;;21.33;30.31;98998.31;6318149;20;3610691;-49
2022/03/29 09:47:00;;;;;;;;;30.67;26.67;;;;;21.94;31.00;98998.44;6311976;20;3588835;-48
2022/03/29 09:49:47;;;;;;;;;38.67;32.67;;;;;22.22;29.74;98998.69;6285546;20;3599214;-47
2022/03/29 09:52:20;;;;;;;;;35.33;32.00;;;;;21.55;30.00;98993.94;6282099;20;1894037;-49
2022/03/29 09:55:15;;;;;;;;;40.33;32.33;;;;;22.23;29.58;98990.31;6313367;20;3600219;-47
2022/03/29 09:57:59;;;;;;;;;33.33;30.00;;;;;22.06;29.28;98992.31;6284165;20;3608544;-47
2022/03/29 10:00:32;;;;;;;;;30.33;29.33;;;;;21.48;30.26;98983.75;6281094;20;3580555;-47
2022/03/29 10:03:05;;;;;;;;;30.00;27.00;;;;;21.62;29.79;98990.31;6281465;20;3598260;-47
2022/03/29 10:05:40;;;;;;;;;30.00;27.33;;;;;21.98;30.15;98986.06;6280922;20;3590880;-47
2022/03/29 10:11:07;;;;;;;;;31.50;25.25;;;;;22.63;28.95;98974.47;6282695;20;3624238;-47
2022/03/29 10:13:36;;;;;;;;;26.33;21.67;;;;;22.39;27.70;98970.13;6314479;20;3580468;-47
2022/03/29 10:16:06;;;;;;;;;22.33;22.33;;;;;22.32;27.74;98970.03;6281199;20;3583853;-46
2022/03/29 10:18:36;;;;;;;;;34.75;28.50;;;;;22.72;28.29;98961.53;6279027;20;3616928;-47
2022/03/29 10:21:10;;;;;;;;;26.67;23.33;;;;;23.03;27.78;98974.16;6309281;20;3582596;-50
2022/03/29 10:23:41;;;;;;;;;17.00;13.50;;;;;22.69;26.50;98959.16;6310927;20;2811743;-52
2022/03/29 10:26:16;;;;;;;;;27.00;22.00;;;;;22.47;26.68;98959.09;6282815;20;3584604;-49
2022/03/29 10:28:49;;;;;;;;;22.67;21.67;;;;;22.45;25.15;98947.47;6282082;20;3580504;-49
2022/03/29 10:31:39;;;;;;;;;30.50;26.00;;;;;22.46;25.49;98949.19;6282998;20;3605476;-49
2022/03/29 10:34:30;;;;;;;;;37.75;32.00;;;;;22.64;26.52;98942.47;6317033;20;3604465;-46
2022/03/29 10:37:16;;;;;;;;;24.67;22.33;;;;;22.65;25.34;98941.44;6313919;20;3576472;-47
2022/03/29 10:40:07;;;;;;;;;23.67;21.00;;;;;22.22;26.72;98931.19;6280455;20;3564882;-49
2022/03/29 10:42:40;;;;;;;;;30.00;24.33;;;;;22.26;26.79;98927.03;6282744;20;3602377;-48
2022/03/29 10:45:24;;;;;;;;;23.38;23.38;;;;;22.20;28.71;98918.75;6304139;20;3587753;-52
2022/03/29 10:47:58;;;;;;;;;29.67;27.00;;;;;22.41;27.69;98917.94;6285203;20;3604452;-47
2022/03/29 10:50:58;;;;;;;;;25.33;19.67;;;;;22.46;25.26;98916.38;6281046;20;3575260;-48
2022/03/29 10:53:32;;;;;;;;;30.33;23.67;;;;;23.25;24.19;98910.19;6274705;20;3592168;-50
2022/03/29 10:56:15;;;;;;;;;29.33;25.67;;;;;22.94;25.08;98908.53;6280023;20;3590925;-51
2022/03/29 10:59:06;;;;;;;;;30.33;26.67;;;;;23.14;25.29;98913.41;6283002;20;3602315;-51
2022/03/29 11:01:37;;;;;;;;;28.33;27.00;;;;;22.49;26.01;98905.03;6282017;20;3607793;-53
2022/03/29 11:04:26;;;;;;;;;29.00;27.25;;;;;22.57;25.59;98896.72;6282594;20;3603396;-55
2022/03/29 11:07:12;;;;;;;;;27.00;23.67;;;;;22.95;24.89;98892.97;6313387;20;3586704;-50
2022/03/29 11:09:44;;;;;;;;;30.33;26.67;;;;;23.09;25.52;98888.50;6279328;20;3601398;-52
2022/03/29 11:12:49;;;;;;;;;27.33;23.00;;;;;23.49;24.83;98883.44;6281947;20;3577347;-52
2022/03/29 11:15:27;;;;;;;;;23.00;22.00;;;;;23.10;25.29;98879.25;6282716;20;2839835;-54
2022/03/29 11:17:56;;;;;;;;;27.00;25.67;;;;;23.47;25.21;98874.56;6284903;20;3590892;-51
2022/03/29 11:20:33;;;;;;;;;27.67;26.33;;;;;23.11;26.02;98878.19;6281932;20;3582799;-50
2022/03/29 11:23:06;;;;;;;;;28.33;27.33;;;;;23.51;25.21;98870.34;6282808;20;3593990;-53
2022/03/29 11:25:46;;;;;;;;;31.67;26.00;;;;;24.14;24.98;98865.78;6288286;20;3586731;-53
2022/03/29 11:28:17;;;;;;;;;31.67;27.00;;;;;23.73;25.00;98858.34;6289739;20;3591993;-53
2022/03/29 11:30:47;;;;;;;;;27.25;24.75;;;;;23.31;25.11;98856.50;6291541;20;3600244;-54